Mountain Ash, United Kingdom
Current Conditions -  °F | °C
As of 7:20 AM on Wednesday 26 Nov 2014 (Local Time) from EGFF Reporting Station
Haze Haze  
Wind Chill: 42°   Ceiling: 1100
Heat Index: 45°   Visibility: 2.5mi
Dew Point: 43°   Wind: 5mph
Humidity: 93%   Direction: 360°N
Pressure: 29.88"   Gusts: NA
Location:  51.68°N, 3.38°W
Report Text: EGFF 260720Z AUTO 36004KT 4100 BR OVC011 07/06 Q1012
Loading
Personal Weather Stations






























Interactive Weather Map New forecast layout! Learn more

10-Day Weather Forecast

Advertisements
Track Severe Weather on mobile